sensor_id;sensor_type;location;lat;lon;timestamp;pressure;altitude;pressure_sealevel;temperature;humidity
28428;BME280;15662;49.128;8.520;2024-02-14T00:01:35;100912.84;;;11.45;46.94
28428;BME280;15662;49.128;8.520;2024-02-14T00:04:04;100913.63;;;11.50;46.87
28428;BME280;15662;49.128;8.520;2024-02-14T00:06:36;100920.59;;;11.55;47.01
28428;BME280;15662;49.128;8.520;2024-02-14T00:09:03;100924.13;;;11.56;47.12
28428;BME280;15662;49.128;8.520;2024-02-14T00:11:31;100923.19;;;11.58;46.91
28428;BME280;15662;49.128;8.520;2024-02-14T00:13:59;100923.09;;;11.61;47.28
28428;BME280;15662;49.128;8.520;2024-02-14T00:16:28;100923.97;;;11.63;47.10
28428;BME280;15662;49.128;8.520;2024-02-14T00:18:58;100916.00;;;11.62;47.11
28428;BME280;15662;49.128;8.520;2024-02-14T00:21:25;100924.75;;;11.67;47.17
28428;BME280;15662;49.128;8.520;2024-02-14T00:23:53;100930.06;;;11.69;47.45
28428;BME280;15662;49.128;8.520;2024-02-14T00:26:20;100923.78;;;11.71;47.51
28428;BME280;15662;49.128;8.520;2024-02-14T00:28:49;100935.28;;;11.72;47.25
28428;BME280;15662;49.128;8.520;2024-02-14T00:31:16;100944.13;;;11.72;47.29
28428;BME280;15662;49.128;8.520;2024-02-14T00:33:43;100937.84;;;11.76;47.49
28428;BME280;15662;49.128;8.520;2024-02-14T00:36:13;100941.31;;;11.80;47.73
28428;BME280;15662;49.128;8.520;2024-02-14T00:38:40;100927.06;;;11.85;47.50
28428;BME280;15662;49.128;8.520;2024-02-14T00:41:08;100931.41;;;11.90;47.78
28428;BME280;15662;49.128;8.520;2024-02-14T00:43:37;100925.16;;;11.92;47.66
28428;BME280;15662;49.128;8.520;2024-02-14T00:46:05;100921.53;;;11.95;47.75
28428;BME280;15662;49.128;8.520;2024-02-14T00:48:32;100928.69;;;11.93;47.63
28428;BME280;15662;49.128;8.520;2024-02-14T00:51:00;100926.94;;;11.90;47.57
28428;BME280;15662;49.128;8.520;2024-02-14T00:53:27;100922.50;;;11.91;47.71
28428;BME280;15662;49.128;8.520;2024-02-14T00:55:54;100921.59;;;11.92;47.64
28428;BME280;15662;49.128;8.520;2024-02-14T00:58:21;100915.41;;;11.93;47.96
28428;BME280;15662;49.128;8.520;2024-02-14T01:00:49;100913.63;;;11.93;47.71
28428;BME280;15662;49.128;8.520;2024-02-14T01:03:16;100917.97;;;11.97;47.88
28428;BME280;15662;49.128;8.520;2024-02-14T01:05:44;100914.28;;;12.01;47.84
28428;BME280;15662;49.128;8.520;2024-02-14T01:08:12;100907.19;;;12.03;47.76
28428;BME280;15662;49.128;8.520;2024-02-14T01:10:40;100913.22;;;12.10;47.83
28428;BME280;15662;49.128;8.520;2024-02-14T01:13:07;100909.59;;;12.14;47.63
28428;BME280;15662;49.128;8.520;2024-02-14T01:15:34;100909.44;;;12.20;47.83
28428;BME280;15662;49.128;8.520;2024-02-14T01:18:02;100904.00;;;12.25;47.53
28428;BME280;15662;49.128;8.520;2024-02-14T01:20:29;100897.66;;;12.30;47.60
28428;BME280;15662;49.128;8.520;2024-02-14T01:22:57;100902.88;;;12.35;47.56
28428;BME280;15662;49.128;8.520;2024-02-14T01:25:24;100897.38;;;12.43;47.33
28428;BME280;15662;49.128;8.520;2024-02-14T01:27:51;100902.59;;;12.47;47.37
28428;BME280;15662;49.128;8.520;2024-02-14T01:30:19;100891.03;;;12.48;47.34
28428;BME280;15662;49.128;8.520;2024-02-14T01:32:46;100894.50;;;12.52;47.30
28428;BME280;15662;49.128;8.520;2024-02-14T01:35:14;100884.63;;;12.55;47.22
28428;BME280;15662;49.128;8.520;2024-02-14T01:37:41;100889.88;;;12.58;47.36
28428;BME280;15662;49.128;8.520;2024-02-14T01:40:11;100877.41;;;12.60;47.18
28428;BME280;15662;49.128;8.520;2024-02-14T01:42:38;100871.19;;;12.61;47.26
28428;BME280;15662;49.128;8.520;2024-02-14T01:45:06;100867.56;;;12.64;47.11
28428;BME280;15662;49.128;8.520;2024-02-14T01:47:34;100864.97;;;12.62;47.04
28428;BME280;15662;49.128;8.520;2024-02-14T01:50:02;100857.00;;;12.61;46.83
28428;BME280;15662;49.128;8.520;2024-02-14T01:52:29;100864.19;;;12.57;46.83
28428;BME280;15662;49.128;8.520;2024-02-14T01:54:56;100856.34;;;12.53;46.56
28428;BME280;15662;49.128;8.520;2024-02-14T01:57:24;100865.25;;;12.50;46.75
28428;BME280;15662;49.128;8.520;2024-02-14T01:59:52;100853.00;;;12.45;46.79
28428;BME280;15662;49.128;8.520;2024-02-14T02:02:20;100850.47;;;12.40;46.60
28428;BME280;15662;49.128;8.520;2024-02-14T02:04:47;100854.03;;;12.39;46.56
28428;BME280;15662;49.128;8.520;2024-02-14T02:07:15;100845.31;;;12.34;46.74
28428;BME280;15662;49.128;8.520;2024-02-14T02:09:42;100840.91;;;12.33;46.63
28428;BME280;15662;49.128;8.520;2024-02-14T02:12:09;100836.50;;;12.32;46.45
28428;BME280;15662;49.128;8.520;2024-02-14T02:14:36;100834.84;;;12.28;46.66
28428;BME280;15662;49.128;8.520;2024-02-14T02:17:03;100833.13;;;12.25;46.68
28428;BME280;15662;49.128;8.520;2024-02-14T02:19:35;100831.41;;;12.23;46.43
28428;BME280;15662;49.128;8.520;2024-02-14T02:22:03;100828.75;;;12.23;46.49
28428;BME280;15662;49.128;8.520;2024-02-14T02:24:31;100834.91;;;12.25;46.50
28428;BME280;15662;49.128;8.520;2024-02-14T02:26:59;100821.63;;;12.25;46.62
28428;BME280;15662;49.128;8.520;2024-02-14T02:29:26;100834.94;;;12.23;46.56
28428;BME280;15662;49.128;8.520;2024-02-14T02:31:53;100824.28;;;12.25;46.50
28428;BME280;15662;49.128;8.520;2024-02-14T02:34:20;100827.78;;;12.25;46.60
28428;BME280;15662;49.128;8.520;2024-02-14T02:36:48;100822.47;;;12.27;46.62
28428;BME280;15662;49.128;8.520;2024-02-14T02:39:17;100812.78;;;12.24;46.68
28428;BME280;15662;49.128;8.520;2024-02-14T02:41:44;100817.25;;;12.22;46.83
28428;BME280;15662;49.128;8.520;2024-02-14T02:44:14;100817.38;;;12.16;46.49
28428;BME280;15662;49.128;8.520;2024-02-14T02:46:41;100820.97;;;12.15;46.51
28428;BME280;15662;49.128;8.520;2024-02-14T02:49:10;100823.69;;;12.13;46.64
28428;BME280;15662;49.128;8.520;2024-02-14T02:51:41;100841.41;;;12.11;46.64
28428;BME280;15662;49.128;8.520;2024-02-14T02:54:08;100839.78;;;12.07;46.63
28428;BME280;15662;49.128;8.520;2024-02-14T02:56:37;100838.97;;;12.04;46.84
28428;BME280;15662;49.128;8.520;2024-02-14T02:59:04;100839.03;;;12.01;46.73
28428;BME280;15662;49.128;8.520;2024-02-14T03:01:37;100844.34;;;12.01;47.06
28428;BME280;15662;49.128;8.520;2024-02-14T03:04:04;100848.78;;;12.00;47.07
28428;BME280;15662;49.128;8.520;2024-02-14T03:06:31;100857.63;;;12.02;47.13
28428;BME280;15662;49.128;8.520;2024-02-14T03:08:59;100846.03;;;12.05;47.26
28428;BME280;15662;49.128;8.520;2024-02-14T03:11:27;100843.19;;;12.12;47.11
28428;BME280;15662;49.128;8.520;2024-02-14T03:13:54;100841.28;;;12.18;47.13
28428;BME280;15662;49.128;8.520;2024-02-14T03:16:22;100840.25;;;12.23;47.23
28428;BME280;15662;49.128;8.520;2024-02-14T03:18:51;100843.69;;;12.28;47.29
28428;BME280;15662;49.128;8.520;2024-02-14T03:21:21;100840.84;;;12.34;47.28
28428;BME280;15662;49.128;8.520;2024-02-14T03:23:49;100846.88;;;12.41;46.97
28428;BME280;15662;49.128;8.520;2024-02-14T03:26:16;100845.06;;;12.43;47.17
28428;BME280;15662;49.128;8.520;2024-02-14T03:28:44;100850.28;;;12.46;47.25
28428;BME280;15662;49.128;8.520;2024-02-14T03:31:12;100837.84;;;12.48;47.30
28428;BME280;15662;49.128;8.520;2024-02-14T03:33:42;100844.03;;;12.49;47.37
28428;BME280;15662;49.128;8.520;2024-02-14T03:36:10;100839.63;;;12.48;47.44
28428;BME280;15662;49.128;8.520;2024-02-14T03:38:37;100846.75;;;12.47;47.32
28428;BME280;15662;49.128;8.520;2024-02-14T03:41:07;100849.41;;;12.47;47.15
28428;BME280;15662;49.128;8.520;2024-02-14T03:43:34;100849.34;;;12.49;47.10
28428;BME280;15662;49.128;8.520;2024-02-14T03:46:02;100842.25;;;12.49;46.93
28428;BME280;15662;49.128;8.520;2024-02-14T03:48:29;100854.63;;;12.50;47.18
28428;BME280;15662;49.128;8.520;2024-02-14T03:50:57;100855.50;;;12.51;46.90
28428;BME280;15662;49.128;8.520;2024-02-14T03:53:24;100854.63;;;12.50;46.85
28428;BME280;15662;49.128;8.520;2024-02-14T03:55:51;100853.75;;;12.50;47.19
28428;BME280;15662;49.128;8.520;2024-02-14T03:58:20;100846.75;;;12.47;47.14
28428;BME280;15662;49.128;8.520;2024-02-14T04:00:53;100858.09;;;12.54;47.22
28428;BME280;15662;49.128;8.520;2024-02-14T04:03:20;100864.28;;;12.54;47.30
28428;BME280;15662;49.128;8.520;2024-02-14T04:05:47;100861.53;;;12.57;47.32
28428;BME280;15662;49.128;8.520;2024-02-14T04:08:15;100868.47;;;12.63;47.28
28428;BME280;15662;49.128;8.520;2024-02-14T04:10:42;100866.66;;;12.65;47.27
28428;BME280;15662;49.128;8.520;2024-02-14T04:13:10;100865.59;;;12.71;47.34
28428;BME280;15662;49.128;8.520;2024-02-14T04:15:38;100863.78;;;12.73;47.34
28428;BME280;15662;49.128;8.520;2024-02-14T04:18:05;100856.63;;;12.76;47.29
28428;BME280;15662;49.128;8.520;2024-02-14T04:20:34;100866.22;;;12.80;47.56
28428;BME280;15662;49.128;8.520;2024-02-14T04:23:02;100867.94;;;12.83;47.54
28428;BME280;15662;49.128;8.520;2024-02-14T04:25:31;100869.66;;;12.85;47.54
28428;BME280;15662;49.128;8.520;2024-02-14T04:27:58;100868.69;;;12.88;47.56
28428;BME280;15662;49.128;8.520;2024-02-14T04:30:26;100858.97;;;12.87;47.36
28428;BME280;15662;49.128;8.520;2024-02-14T04:32:54;100866.84;;;12.90;47.69
28428;BME280;15662;49.128;8.520;2024-02-14T04:35:21;100862.34;;;12.94;47.67
28428;BME280;15662;49.128;8.520;2024-02-14T04:37:48;100860.59;;;12.93;47.60
28428;BME280;15662;49.128;8.520;2024-02-14T04:40:16;100872.06;;;12.95;47.57
28428;BME280;15662;49.128;8.520;2024-02-14T04:42:43;100872.97;;;12.94;47.50
28428;BME280;15662;49.128;8.520;2024-02-14T04:45:10;100868.56;;;12.93;47.56
28428;BME280;15662;49.128;8.520;2024-02-14T04:47:38;100871.16;;;12.96;47.75
28428;BME280;15662;49.128;8.520;2024-02-14T04:50:06;100877.25;;;12.99;47.54
28428;BME280;15662;49.128;8.520;2024-02-14T04:52:33;100871.00;;;13.02;47.63
28428;BME280;15662;49.128;8.520;2024-02-14T04:55:00;100873.59;;;13.03;47.74
28428;BME280;15662;49.128;8.520;2024-02-14T04:57:27;100875.25;;;13.07;47.69
28428;BME280;15662;49.128;8.520;2024-02-14T04:59:55;100871.63;;;13.10;47.94
28428;BME280;15662;49.128;8.520;2024-02-14T05:02:22;100874.16;;;13.14;47.67
28428;BME280;15662;49.128;8.520;2024-02-14T05:04:49;100882.13;;;13.16;47.65
28428;BME280;15662;49.128;8.520;2024-02-14T05:07:16;100875.94;;;13.15;47.67
28428;BME280;15662;49.128;8.520;2024-02-14T05:09:43;100883.94;;;13.14;47.88
28428;BME280;15662;49.128;8.520;2024-02-14T05:12:11;100869.81;;;13.12;47.78
28428;BME280;15662;49.128;8.520;2024-02-14T05:14:39;100870.69;;;13.12;48.01
28428;BME280;15662;49.128;8.520;2024-02-14T05:17:08;100869.72;;;13.15;48.03
28428;BME280;15662;49.128;8.520;2024-02-14T05:19:35;100865.22;;;13.17;48.11
28428;BME280;15662;49.128;8.520;2024-02-14T05:22:03;100866.03;;;13.19;47.74
28428;BME280;15662;49.128;8.520;2024-02-14T05:24:30;100867.75;;;13.23;47.91
28428;BME280;15662;49.128;8.520;2024-02-14T05:26:58;100871.09;;;13.30;47.83
28428;BME280;15662;49.128;8.520;2024-02-14T05:29:25;100868.34;;;13.33;48.06
28428;BME280;15662;49.128;8.520;2024-02-14T05:31:52;100864.75;;;13.35;47.83
28428;BME280;15662;49.128;8.520;2024-02-14T05:34:22;100859.38;;;13.37;47.77
28428;BME280;15662;49.128;8.520;2024-02-14T05:36:50;100859.31;;;13.38;47.70
28428;BME280;15662;49.128;8.520;2024-02-14T05:39:18;100856.66;;;13.38;47.55
28428;BME280;15662;49.128;8.520;2024-02-14T05:41:46;100852.19;;;13.39;47.65
28428;BME280;15662;49.128;8.520;2024-02-14T05:44:13;100853.03;;;13.41;47.77
28428;BME280;15662;49.128;8.520;2024-02-14T05:46:40;100850.38;;;13.41;47.48
28428;BME280;15662;49.128;8.520;2024-02-14T05:49:08;100853.03;;;13.41;47.56
28428;BME280;15662;49.128;8.520;2024-02-14T05:51:36;100853.91;;;13.41;47.55
28428;BME280;15662;49.128;8.520;2024-02-14T05:54:03;100863.63;;;13.42;47.64
28428;BME280;15662;49.128;8.520;2024-02-14T05:56:30;100868.88;;;13.46;47.61
28428;BME280;15662;49.128;8.520;2024-02-14T05:58:57;100868.81;;;13.47;47.48
28428;BME280;15662;49.128;8.520;2024-02-14T06:01:24;100869.63;;;13.49;47.54
28428;BME280;15662;49.128;8.520;2024-02-14T06:03:52;100877.53;;;13.52;47.61
28428;BME280;15662;49.128;8.520;2024-02-14T06:06:19;100874.81;;;13.54;47.60
28428;BME280;15662;49.128;8.520;2024-02-14T06:08:46;100880.13;;;13.55;47.56
28428;BME280;15662;49.128;8.520;2024-02-14T06:11:14;100884.63;;;13.53;47.65
28428;BME280;15662;49.128;8.520;2024-02-14T06:13:42;100893.53;;;13.52;47.48
28428;BME280;15662;49.128;8.520;2024-02-14T06:16:11;100890.78;;;13.55;47.58
28428;BME280;15662;49.128;8.520;2024-02-14T06:18:38;100894.25;;;13.57;47.37
28428;BME280;15662;49.128;8.520;2024-02-14T06:21:07;100895.97;;;13.60;47.43
28428;BME280;15662;49.128;8.520;2024-02-14T06:23:34;100903.00;;;13.62;47.58
28428;BME280;15662;49.128;8.520;2024-02-14T06:26:04;100904.69;;;13.65;47.43
28428;BME280;15662;49.128;8.520;2024-02-14T06:28:31;100907.31;;;13.66;47.52
28428;BME280;15662;49.128;8.520;2024-02-14T06:30:58;100903.66;;;13.69;47.53
28428;BME280;15662;49.128;8.520;2024-02-14T06:33:26;100914.19;;;13.74;47.54
28428;BME280;15662;49.128;8.520;2024-02-14T06:35:53;100905.31;;;13.75;47.37
28428;BME280;15662;49.128;8.520;2024-02-14T06:38:21;100908.84;;;13.75;47.34
28428;BME280;15662;49.128;8.520;2024-02-14T06:40:49;100923.03;;;13.76;47.38
28428;BME280;15662;49.128;8.520;2024-02-14T06:43:16;100922.16;;;13.75;47.40
28428;BME280;15662;49.128;8.520;2024-02-14T06:45:43;100933.69;;;13.76;47.42
28428;BME280;15662;49.128;8.520;2024-02-14T06:48:11;100926.63;;;13.75;47.50
28428;BME280;15662;49.128;8.520;2024-02-14T06:50:38;100924.75;;;13.77;47.59
28428;BME280;15662;49.128;8.520;2024-02-14T06:53:06;100926.41;;;13.81;47.57
28428;BME280;15662;49.128;8.520;2024-02-14T06:55:33;100929.09;;;13.81;47.48
28428;BME280;15662;49.128;8.520;2024-02-14T06:58:01;100934.34;;;13.82;47.62
28428;BME280;15662;49.128;8.520;2024-02-14T07:00:28;100930.81;;;13.82;47.83
28428;BME280;15662;49.128;8.520;2024-02-14T07:02:56;100934.50;;;13.78;47.98
28428;BME280;15662;49.128;8.520;2024-02-14T07:05:23;100947.94;;;13.75;48.17
28428;BME280;15662;49.128;8.520;2024-02-14T07:07:50;100947.09;;;13.73;48.27
28428;BME280;15662;49.128;8.520;2024-02-14T07:10:17;100938.22;;;13.72;48.60
28428;BME280;15662;49.128;8.520;2024-02-14T07:12:45;100938.16;;;13.74;48.75
28428;BME280;15662;49.128;8.520;2024-02-14T07:15:12;100932.84;;;13.74;48.97
28428;BME280;15662;49.128;8.520;2024-02-14T07:17:40;100939.00;;;13.76;48.87
28428;BME280;15662;49.128;8.520;2024-02-14T07:20:07;100936.22;;;13.80;49.04
28428;BME280;15662;49.128;8.520;2024-02-14T07:22:37;100935.22;;;13.83;49.13
28428;BME280;15662;49.128;8.520;2024-02-14T07:25:05;100936.84;;;13.88;49.05
28428;BME280;15662;49.128;8.520;2024-02-14T07:27:32;100943.00;;;13.90;49.09
28428;BME280;15662;49.128;8.520;2024-02-14T07:29:59;100952.66;;;13.94;49.14
28428;BME280;15662;49.128;8.520;2024-02-14T07:32:27;100942.75;;;13.98;49.04
28428;BME280;15662;49.128;8.520;2024-02-14T07:34:55;100944.41;;;14.02;48.99
28428;BME280;15662;49.128;8.520;2024-02-14T07:37:22;100947.00;;;14.05;48.88
28428;BME280;15662;49.128;8.520;2024-02-14T07:39:49;100953.13;;;14.09;48.93
28428;BME280;15662;49.128;8.520;2024-02-14T07:42:16;100951.31;;;14.09;48.88
28428;BME280;15662;49.128;8.520;2024-02-14T07:44:43;100963.56;;;14.15;48.77
28428;BME280;15662;49.128;8.520;2024-02-14T07:47:11;100964.38;;;14.17;48.73
28428;BME280;15662;49.128;8.520;2024-02-14T07:49:39;100966.97;;;14.20;48.74
28428;BME280;15662;49.128;8.520;2024-02-14T07:52:07;100961.63;;;14.20;48.91
28428;BME280;15662;49.128;8.520;2024-02-14T07:54:34;100961.59;;;14.22;48.78
28428;BME280;15662;49.128;8.520;2024-02-14T07:57:01;100965.97;;;14.24;48.75
28428;BME280;15662;49.128;8.520;2024-02-14T07:59:28;100968.50;;;14.27;48.68
28428;BME280;15662;49.128;8.520;2024-02-14T08:01:58;100965.84;;;14.27;48.65
28428;BME280;15662;49.128;8.520;2024-02-14T08:04:25;100963.91;;;14.32;48.57
28428;BME280;15662;49.128;8.520;2024-02-14T08:06:52;100966.50;;;14.35;48.71
28428;BME280;15662;49.128;8.520;2024-02-14T08:09:20;100963.75;;;14.37;48.57
28428;BME280;15662;49.128;8.520;2024-02-14T08:11:47;100964.59;;;14.39;48.54
28428;BME280;15662;49.128;8.520;2024-02-14T08:14:14;100969.00;;;14.40;48.43
28428;BME280;15662;49.128;8.520;2024-02-14T08:16:41;100967.22;;;14.40;48.43
28428;BME280;15662;49.128;8.520;2024-02-14T08:19:09;100964.47;;;14.42;48.37
28428;BME280;15662;49.128;8.520;2024-02-14T08:21:37;100968.00;;;14.44;48.43
28428;BME280;15662;49.128;8.520;2024-02-14T08:24:04;100959.88;;;14.49;48.43
28428;BME280;15662;49.128;8.520;2024-02-14T08:26:32;100962.44;;;14.52;48.37
28428;BME280;15662;49.128;8.520;2024-02-14T08:28:59;100961.47;;;14.54;48.30
28428;BME280;15662;49.128;8.520;2024-02-14T08:31:27;100970.28;;;14.56;48.28
28428;BME280;15662;49.128;8.520;2024-02-14T08:33:55;100973.78;;;14.58;48.49
28428;BME280;15662;49.128;8.520;2024-02-14T08:36:22;100977.19;;;14.63;48.35
28428;BME280;15662;49.128;8.520;2024-02-14T08:38:49;100974.47;;;14.65;48.26
28428;BME280;15662;49.128;8.520;2024-02-14T08:41:17;100970.75;;;14.69;48.22
28428;BME280;15662;49.128;8.520;2024-02-14T08:43:45;100976.03;;;14.70;48.23
28428;BME280;15662;49.128;8.520;2024-02-14T08:46:14;100968.81;;;14.74;48.19
28428;BME280;15662;49.128;8.520;2024-02-14T08:48:42;100983.75;;;14.80;48.20
28428;BME280;15662;49.128;8.520;2024-02-14T08:51:16;100980.06;;;14.84;48.08
28428;BME280;15662;49.128;8.520;2024-02-14T08:53:44;100967.44;;;14.89;48.26
28428;BME280;15662;49.128;8.520;2024-02-14T08:56:13;100972.69;;;14.90;48.12
28428;BME280;15662;49.128;8.520;2024-02-14T08:58:41;100971.63;;;14.96;48.12
28428;BME280;15662;49.128;8.520;2024-02-14T09:01:09;100974.13;;;15.01;48.07
28428;BME280;15662;49.128;8.520;2024-02-14T09:03:43;100976.72;;;15.04;48.04
28428;BME280;15662;49.128;8.520;2024-02-14T09:06:16;100976.56;;;15.08;48.11
28428;BME280;15662;49.128;8.520;2024-02-14T09:08:45;100967.69;;;15.06;48.09
28428;BME280;15662;49.128;8.520;2024-02-14T09:11:13;100973.66;;;15.14;47.91
28428;BME280;15662;49.128;8.520;2024-02-14T09:13:40;100975.31;;;15.18;47.84
28428;BME280;15662;49.128;8.520;2024-02-14T09:16:09;100980.34;;;15.26;47.93
28428;BME280;15662;49.128;8.520;2024-02-14T09:18:37;100981.06;;;15.31;47.72
28428;BME280;15662;49.128;8.520;2024-02-14T09:21:05;100974.69;;;15.35;47.60
28428;BME280;15662;49.128;8.520;2024-02-14T09:23:33;100978.22;;;15.36;47.72
28428;BME280;15662;49.128;8.520;2024-02-14T09:26:01;100972.84;;;15.37;47.49
28428;BME280;15662;49.128;8.520;2024-02-14T09:28:29;100973.66;;;15.39;47.46
28428;BME280;15662;49.128;8.520;2024-02-14T09:30:57;100971.75;;;15.43;47.42
28428;BME280;15662;49.128;8.520;2024-02-14T09:33:24;100969.88;;;15.45;47.38
28428;BME280;15662;49.128;8.520;2024-02-14T09:35:52;100968.06;;;15.47;47.31
28428;BME280;15662;49.128;8.520;2024-02-14T09:38:20;100963.50;;;15.49;47.19
28428;BME280;15662;49.128;8.520;2024-02-14T09:40:50;100964.28;;;15.53;47.17
28428;BME280;15662;49.128;8.520;2024-02-14T09:43:31;100967.75;;;15.55;47.18
28428;BME280;15662;49.128;8.520;2024-02-14T09:46:02;100965.16;;;15.53;47.07
28428;BME280;15662;49.128;8.520;2024-02-14T09:48:30;100975.72;;;15.56;47.10
28428;BME280;15662;49.128;8.520;2024-02-14T09:51:00;100976.53;;;15.58;46.97
28428;BME280;15662;49.128;8.520;2024-02-14T09:53:28;100979.16;;;15.60;47.09
28428;BME280;15662;49.128;8.520;2024-02-14T09:55:57;100975.50;;;15.62;47.00
28428;BME280;15662;49.128;8.520;2024-02-14T09:58:25;100974.38;;;15.69;46.95
28428;BME280;15662;49.128;8.520;2024-02-14T10:00:54;100976.88;;;15.74;46.96
28428;BME280;15662;49.128;8.520;2024-02-14T10:03:21;100976.75;;;15.77;47.02
28428;BME280;15662;49.128;8.520;2024-02-14T10:05:49;100984.63;;;15.82;47.00
28428;BME280;15662;49.128;8.520;2024-02-14T10:08:17;100972.84;;;15.86;47.04
28428;BME280;15662;49.128;8.520;2024-02-14T10:10:45;100978.09;;;15.89;46.99
28428;BME280;15662;49.128;8.520;2024-02-14T10:13:17;100977.06;;;15.93;46.85
28428;BME280;15662;49.128;8.520;2024-02-14T10:15:45;100980.34;;;15.99;47.05
28428;BME280;15662;49.128;8.520;2024-02-14T10:18:14;100983.69;;;16.06;47.16
28428;BME280;15662;49.128;8.520;2024-02-14T10:20:56;100976.34;;;16.11;47.08
28428;BME280;15662;49.128;8.520;2024-02-14T10:23:26;101001.16;;;16.15;47.26
28428;BME280;15662;49.128;8.520;2024-02-14T10:25:54;100988.53;;;16.18;47.33
28428;BME280;15662;49.128;8.520;2024-02-14T10:28:23;100992.78;;;16.24;47.15
28428;BME280;15662;49.128;8.520;2024-02-14T10:31:05;100999.69;;;16.30;47.42
28428;BME280;15662;49.128;8.520;2024-02-14T10:33:32;100995.16;;;16.32;47.64
28428;BME280;15662;49.128;8.520;2024-02-14T10:36:00;101003.09;;;16.33;47.75
28428;BME280;15662;49.128;8.520;2024-02-14T10:38:31;101006.59;;;16.35;47.65
28428;BME280;15662;49.128;8.520;2024-02-14T10:41:03;101009.41;;;16.32;47.61
28428;BME280;15662;49.128;8.520;2024-02-14T10:43:32;101006.78;;;16.31;47.76
28428;BME280;15662;49.128;8.520;2024-02-14T10:46:08;101019.09;;;16.35;47.74
28428;BME280;15662;49.128;8.520;2024-02-14T10:48:38;101020.97;;;16.33;47.82
28428;BME280;15662;49.128;8.520;2024-02-14T10:51:08;101018.19;;;16.36;47.74
28428;BME280;15662;49.128;8.520;2024-02-14T10:53:39;101016.41;;;16.35;47.52
28428;BME280;15662;49.128;8.520;2024-02-14T10:56:18;101022.47;;;16.40;47.38
28428;BME280;15662;49.128;8.520;2024-02-14T10:58:49;101019.06;;;16.36;47.46
28428;BME280;15662;49.128;8.520;2024-02-14T11:01:19;101017.25;;;16.37;47.49
28428;BME280;15662;49.128;8.520;2024-02-14T11:03:47;101017.09;;;16.40;47.35
28428;BME280;15662;49.128;8.520;2024-02-14T11:06:18;101011.66;;;16.43;47.36
28428;BME280;15662;49.128;8.520;2024-02-14T11:09:04;101021.22;;;16.48;47.24
28428;BME280;15662;49.128;8.520;2024-02-14T11:11:37;101022.16;;;16.47;47.54
28428;BME280;15662;49.128;8.520;2024-02-14T11:14:06;101014.84;;;16.52;47.43
28428;BME280;15662;49.128;8.520;2024-02-14T11:16:33;101004.88;;;16.56;47.54
28428;BME280;15662;49.128;8.520;2024-02-14T11:19:32;101003.59;;;16.65;47.36
28428;BME280;15662;49.128;8.520;2024-02-14T11:22:12;101005.16;;;16.72;47.47
28428;BME280;15662;49.128;8.520;2024-02-14T11:24:46;100996.94;;;16.76;47.62
28428;BME280;15662;49.128;8.520;2024-02-14T11:27:17;100989.69;;;16.79;47.53
28428;BME280;15662;49.128;8.520;2024-02-14T11:30:00;100993.88;;;16.86;47.55
28428;BME280;15662;49.128;8.520;2024-02-14T11:32:28;100987.41;;;16.91;47.45
28428;BME280;15662;49.128;8.520;2024-02-14T11:34:56;100989.81;;;16.97;47.31
28428;BME280;15662;49.128;8.520;2024-02-14T11:37:28;100991.31;;;17.05;47.37
28428;BME280;15662;49.128;8.520;2024-02-14T11:39:57;100987.69;;;17.06;47.45
28428;BME280;15662;49.128;8.520;2024-02-14T11:42:25;100991.63;;;17.17;47.60
28428;BME280;15662;49.128;8.520;2024-02-14T11:44:53;100993.13;;;17.24;47.56
28428;BME280;15662;49.128;8.520;2024-02-14T11:47:23;100998.19;;;17.31;47.27
28428;BME280;15662;49.128;8.520;2024-02-14T11:49:51;101003.28;;;17.37;47.33
28428;BME280;15662;49.128;8.520;2024-02-14T11:52:19;100999.63;;;17.39;47.28
28428;BME280;15662;49.128;8.520;2024-02-14T11:54:47;100999.47;;;17.42;47.22
28428;BME280;15662;49.128;8.520;2024-02-14T11:57:18;100990.44;;;17.45;47.33
28428;BME280;15662;49.128;8.520;2024-02-14T11:59:49;100982.13;;;17.51;47.18
28428;BME280;15662;49.128;8.520;2024-02-14T12:02:20;100983.78;;;17.53;47.24
28428;BME280;15662;49.128;8.520;2024-02-14T12:04:49;100985.47;;;17.56;47.13
28428;BME280;15662;49.128;8.520;2024-02-14T12:07:18;100978.19;;;17.58;47.18
28428;BME280;15662;49.128;8.520;2024-02-14T12:09:46;100973.66;;;17.60;47.11
28428;BME280;15662;49.128;8.520;2024-02-14T12:12:14;100964.53;;;17.64;47.16
28428;BME280;15662;49.128;8.520;2024-02-14T12:14:43;100961.69;;;17.67;47.10
28428;BME280;15662;49.128;8.520;2024-02-14T12:17:12;100964.25;;;17.70;47.21
28428;BME280;15662;49.128;8.520;2024-02-14T12:19:39;100958.56;;;17.78;47.34
28428;BME280;15662;49.128;8.520;2024-02-14T12:22:11;100958.09;;;17.89;47.10
28428;BME280;15662;49.128;8.520;2024-02-14T12:24:46;100952.56;;;17.92;47.14
28428;BME280;15662;49.128;8.520;2024-02-14T12:27:17;100939.88;;;17.95;47.00
28428;BME280;15662;49.128;8.520;2024-02-14T12:29:48;100950.41;;;18.00;47.02
28428;BME280;15662;49.128;8.520;2024-02-14T12:32:17;100943.13;;;18.02;47.05
28428;BME280;15662;49.128;8.520;2024-02-14T12:34:45;100953.59;;;18.08;47.19
28428;BME280;15662;49.128;8.520;2024-02-14T12:37:12;100948.94;;;18.12;47.00
28428;BME280;15662;49.128;8.520;2024-02-14T12:39:40;100945.28;;;18.13;47.00
28428;BME280;15662;49.128;8.520;2024-02-14T12:42:07;100948.88;;;18.13;46.99
28428;BME280;15662;49.128;8.520;2024-02-14T12:44:35;100940.84;;;18.13;46.94
28428;BME280;15662;49.128;8.520;2024-02-14T12:47:03;100932.84;;;18.12;46.95
28428;BME280;15662;49.128;8.520;2024-02-14T12:49:30;100935.47;;;18.13;46.83
28428;BME280;15662;49.128;8.520;2024-02-14T12:51:59;100941.53;;;18.17;47.01
28428;BME280;15662;49.128;8.520;2024-02-14T12:54:26;100942.34;;;18.19;47.05
28428;BME280;15662;49.128;8.520;2024-02-14T12:56:53;100937.69;;;18.22;46.98